Austinville, Pennsylvania
Current Conditions -  °F | °C
As of 7:53 PM on Tuesday 21 Oct 2014 (Local Time) from KELM Reporting Station
Overcast Overcast  
Wind Chill: 11°   Ceiling: 7000
Heat Index: 11°   Visibility: 10mi
Dew Point:   Wind: 3mph
Humidity: 89%   Direction: 50°NE
Pressure: 29.93"   Gusts: NA
Location:  41.8495°N, 76.7925°W
Report Text: KELM 212353Z 05003KT 10SM FEW045 OVC070 11/09 A2993 RMK AO2 RAE14 SLP137 P0001 60002 T01060089 10133 20106 51019
Loading
Personal Weather Stations






























Interactive Weather Map
Tropical Storm Tracking
New forecast layout! Learn more

10-Day Weather Forecast

Advertisements
Track Severe Weather on mobile